TimeCST,TemperatureF,Dew PointF,Humidity,Sea Level PressureIn,VisibilityMPH,Wind Direction,Wind SpeedMPH,Gust SpeedMPH,PrecipitationIn,Events,Conditions,WindDirDegrees,DateUTC
12:15 AM,-20.2,-25.6,76,30.20,10.0,West,3.5,-,N/A,,Clear,260,2013-01-22 06:15:00
12:35 AM,-20.4,-25.6,77,30.20,10.0,West,3.5,-,N/A,,Clear,260,2013-01-22 06:35:00
12:55 AM,-20.7,-26.1,76,30.21,10.0,West,3.5,-,N/A,,Clear,260,2013-01-22 06:55:00
1:15 AM,-21.3,-26.5,77,30.21,10.0,West,3.5,-,N/A,,Clear,260,2013-01-22 07:15:00
1:35 AM,-21.3,-26.5,77,30.21,10.0,West,3.5,-,N/A,,Clear,260,2013-01-22 07:35:00
1:55 AM,-20.7,-26.0,77,30.21,10.0,WSW,4.6,-,N/A,,Clear,250,2013-01-22 07:55:00
2:15 AM,-20.6,-25.8,77,30.21,10.0,West,6.9,-,N/A,,Clear,260,2013-01-22 08:15:00
2:35 AM,-20.7,-26.1,76,30.21,10.0,West,4.6,-,N/A,,Clear,260,2013-01-22 08:35:00
2:55 AM,-21.8,-27.0,77,30.21,10.0,West,4.6,-,N/A,,Clear,260,2013-01-22 08:55:00
3:15 AM,-21.6,-27.0,76,30.22,10.0,West,4.6,-,N/A,,Clear,260,2013-01-22 09:15:00
3:35 AM,-21.3,-27.0,75,30.22,10.0,West,4.6,-,N/A,,Clear,260,2013-01-22 09:35:00
3:55 AM,-21.6,-27.2,75,30.22,10.0,West,3.5,-,N/A,,Clear,270,2013-01-22 09:55:00
4:15 AM,-22.2,-27.4,77,30.22,10.0,Calm,Calm,-,N/A,,Clear,0,2013-01-22 10:15:00
4:35 AM,-22.2,-27.4,77,30.22,10.0,West,4.6,-,N/A,,Clear,260,2013-01-22 10:35:00
4:55 AM,-22.4,-27.6,77,30.22,10.0,West,3.5,-,N/A,,Clear,260,2013-01-22 10:55:00
5:15 AM,-22.7,-27.9,77,30.24,10.0,West,4.6,-,N/A,,Clear,260,2013-01-22 11:15:00
5:35 AM,-22.9,-28.3,76,30.23,10.0,West,3.5,-,N/A,,Clear,260,2013-01-22 11:35:00
5:55 AM,-23.1,-28.5,76,30.23,10.0,Calm,Calm,-,N/A,,Clear,0,2013-01-22 11:55:00
6:15 AM,-23.4,-28.7,77,30.22,10.0,WSW,3.5,-,N/A,,Clear,240,2013-01-22 12:15:00
6:35 AM,-22.7,-28.1,76,30.21,10.0,Calm,Calm,-,N/A,,Clear,0,2013-01-22 12:35:00
6:55 AM,-23.1,-28.3,77,30.21,10.0,Calm,Calm,-,N/A,,Clear,0,2013-01-22 12:55:00
7:15 AM,-23.1,-28.3,77,30.21,10.0,Calm,Calm,-,N/A,,Clear,0,2013-01-22 13:15:00
7:55 AM,-22.9,-28.3,76,30.22,10.0,WSW,4.6,-,N/A,,Clear,240,2013-01-22 13:55:00
8:15 AM,-22.7,-28.1,76,30.22,10.0,Calm,Calm,-,N/A,,Clear,0,2013-01-22 14:15:00
8:35 AM,-22.9,-28.3,76,30.22,10.0,SW,3.5,-,N/A,,Clear,230,2013-01-22 14:35:00
8:55 AM,-22.0,-27.4,76,30.24,10.0,WSW,3.5,-,N/A,,Clear,240,2013-01-22 14:55:00
9:15 AM,-20.2,-25.6,76,30.23,10.0,SW,5.8,-,N/A,,Clear,230,2013-01-22 15:15:00
9:55 AM,-17.3,-22.7,76,30.23,10.0,Calm,Calm,-,N/A,,Clear,0,2013-01-22 15:55:00
10:15 AM,-15.2,-20.9,75,30.23,10.0,SW,3.5,-,N/A,,Clear,230,2013-01-22 16:15:00
10:35 AM,-13.7,-19.7,75,30.23,10.0,SW,3.5,-,N/A,,Clear,220,2013-01-22 16:35:00
10:55 AM,-12.1,-18.6,73,30.24,10.0,WSW,4.6,-,N/A,,Clear,250,2013-01-22 16:55:00
11:15 AM,-10.8,-17.9,71,30.24,10.0,WSW,3.5,-,N/A,,Clear,250,2013-01-22 17:15:00
11:35 AM,-9.8,-17.0,71,30.22,10.0,SSW,3.5,-,N/A,,Clear,210,2013-01-22 17:35:00
11:55 AM,-8.5,-16.2,69,30.22,10.0,SSW,3.5,-,N/A,,Clear,210,2013-01-22 17:55:00
12:15 PM,-7.2,-15.5,67,30.21,10.0,Calm,Calm,-,N/A,,Clear,0,2013-01-22 18:15:00
12:55 PM,-6.2,-14.8,66,30.19,10.0,Calm,Calm,-,N/A,,Clear,0,2013-01-22 18:55:00
1:15 PM,-5.3,-14.1,66,30.19,10.0,Calm,Calm,-,N/A,,Clear,0,2013-01-22 19:15:00
1:35 PM,-4.5,-13.5,65,30.19,10.0,West,3.5,-,N/A,,Clear,270,2013-01-22 19:35:00
1:55 PM,-3.8,-13.4,64,30.18,10.0,West,5.8,-,N/A,,Clear,270,2013-01-22 19:55:00
2:15 PM,-2.9,-13.0,62,30.17,10.0,West,4.6,-,N/A,,Clear,280,2013-01-22 20:15:00
2:35 PM,-2.0,-12.6,61,30.17,10.0,West,6.9,-,N/A,,Clear,270,2013-01-22 20:35:00
2:55 PM,-2.0,-12.5,61,30.17,10.0,West,6.9,-,N/A,,Clear,270,2013-01-22 20:55:00
3:15 PM,-2.2,-12.6,61,30.18,10.0,West,8.1,-,N/A,,Clear,270,2013-01-22 21:15:00
3:35 PM,-2.6,-12.6,62,30.17,10.0,West,8.1,-,N/A,,Clear,270,2013-01-22 21:35:00
3:55 PM,-2.9,-12.8,63,30.17,10.0,West,6.9,-,N/A,,Clear,260,2013-01-22 21:55:00
4:15 PM,-2.7,-12.5,63,30.16,10.0,West,8.1,-,N/A,,Clear,260,2013-01-22 22:15:00
4:35 PM,-2.9,-12.3,64,30.16,10.0,West,6.9,-,N/A,,Clear,260,2013-01-22 22:35:00
4:55 PM,-3.1,-12.1,65,30.15,10.0,West,4.6,-,N/A,,Clear,260,2013-01-22 22:55:00
5:15 PM,-3.1,-11.7,67,30.15,10.0,WSW,5.8,-,N/A,,Scattered Clouds,240,2013-01-22 23:15:00
5:35 PM,-3.1,-11.7,67,30.14,10.0,WSW,4.6,-,N/A,,Scattered Clouds,250,2013-01-22 23:35:00
5:55 PM,-3.5,-11.7,68,30.14,10.0,WSW,4.6,-,N/A,,Clear,250,2013-01-22 23:55:00
6:15 PM,-3.8,-11.7,69,30.14,10.0,WSW,4.6,-,N/A,,Clear,250,2013-01-23 00:15:00
6:35 PM,-4.5,-12.1,70,30.14,10.0,WSW,4.6,-,N/A,,Clear,250,2013-01-23 00:35:00
6:55 PM,-5.1,-12.1,72,30.13,10.0,Calm,Calm,-,N/A,,Clear,0,2013-01-23 00:55:00
7:15 PM,-5.8,-12.5,73,30.12,10.0,Calm,Calm,-,N/A,,Clear,0,2013-01-23 01:15:00
7:35 PM,-6.3,-12.5,75,30.12,10.0,Calm,Calm,-,N/A,,Mostly Cloudy,0,2013-01-23 01:35:00
7:55 PM,-6.9,-12.8,75,30.12,10.0,SW,3.5,-,N/A,,Overcast,220,2013-01-23 01:55:00
8:15 PM,-6.7,-12.6,75,30.12,10.0,Calm,Calm,-,N/A,,Mostly Cloudy,0,2013-01-23 02:15:00
8:35 PM,-7.1,-12.6,77,30.11,10.0,Calm,Calm,-,N/A,,Scattered Clouds,0,2013-01-23 02:35:00
8:55 PM,-7.4,-12.8,77,30.11,10.0,SW,3.5,-,N/A,,Clear,220,2013-01-23 02:55:00
9:15 PM,-7.6,-13.0,77,30.11,10.0,SW,3.5,-,N/A,,Clear,230,2013-01-23 03:15:00
9:35 PM,-7.6,-13.0,77,30.11,10.0,SW,3.5,-,N/A,,Scattered Clouds,230,2013-01-23 03:35:00
9:55 PM,-7.8,-12.8,79,30.10,10.0,SW,3.5,-,N/A,,Overcast,230,2013-01-23 03:55:00
10:15 PM,-7.8,-13.0,78,30.09,10.0,SW,3.5,-,N/A,,Overcast,220,2013-01-23 04:15:00
10:55 PM,-7.6,-12.5,79,30.09,10.0,SW,4.6,-,N/A,,Mostly Cloudy,220,2013-01-23 04:55:00
11:15 PM,-7.1,-11.7,80,30.09,10.0,SW,4.6,-,N/A,,Overcast,230,2013-01-23 05:15:00
11:55 PM,-4.4,-9.2,80,30.09,10.0,WSW,4.6,-,N/A,,Overcast,240,2013-01-23 05:55:00